Time;durP1;ratioP1;P1;durP2;ratioP2;P2;SDS_P1;SDS_P2;PMS_P1;PMS_P2;Temp;Humidity;BMP_temperature;BMP_pressure;BME280_temperature;BME280_humidity;BME280_pressure;Samples;Min_cycle;Max_cycle;Signal;HPM_P1;HPM_P2
2022/09/21 00:00:25;;;;;;;11.75;4.55;;;;;;;8.49;97.20;102320.44;4978393;28;20042;-76
2022/09/21 00:02:54;;;;;;;8.85;3.92;;;;;;;8.46;97.06;102327.63;4982407;28;20121;-76
2022/09/21 00:05:19;;;;;;;8.95;3.97;;;;;;;8.42;97.21;102324.41;4997240;28;20077;-77
2022/09/21 00:07:44;;;;;;;8.05;4.05;;;;;;;8.35;96.98;102321.38;4966169;28;20031;-76
2022/09/21 00:10:10;;;;;;;8.82;4.13;;;;;;;8.31;97.26;102324.28;4981109;28;20038;-76
2022/09/21 00:12:37;;;;;;;9.43;4.45;;;;;;;8.28;97.31;102320.13;4977476;28;20034;-76
2022/09/21 00:15:09;;;;;;;8.20;4.35;;;;;;;8.27;97.49;102320.22;4978990;28;20042;-76
2022/09/21 00:17:36;;;;;;;8.27;3.97;;;;;;;8.19;97.33;102326.75;4981467;28;20026;-75
2022/09/21 00:20:05;;;;;;;6.47;3.88;;;;;;;8.14;97.61;102328.00;4981827;28;20030;-76
2022/09/21 00:22:32;;;;;;;7.47;4.03;;;;;;;8.08;97.88;102320.63;4981941;28;20030;-76
2022/09/21 00:24:57;;;;;;;15.48;4.07;;;;;;;8.04;97.91;102329.53;4979669;28;20045;-76
2022/09/21 00:27:28;;;;;;;9.63;3.78;;;;;;;8.03;98.21;102326.13;4985139;28;20038;-76
2022/09/21 00:30:02;;;;;;;6.38;4.03;;;;;;;8.05;98.57;102334.59;4983273;28;20038;-76
2022/09/21 00:32:30;;;;;;;7.20;3.85;;;;;;;8.06;98.38;102328.53;4977377;28;20044;-76
2022/09/21 00:34:57;;;;;;;8.57;4.07;;;;;;;8.07;98.39;102329.34;4984957;28;20034;-75
2022/09/21 00:37:23;;;;;;;13.00;4.03;;;;;;;8.03;98.30;102330.47;4969487;28;20042;-76
2022/09/21 00:39:49;;;;;;;7.55;4.35;;;;;;;8.02;98.26;102328.81;4983756;28;20034;-75
2022/09/21 00:42:21;;;;;;;12.82;3.30;;;;;;;7.99;98.46;102335.84;4980979;28;20814;-76
2022/09/21 00:44:47;;;;;;;6.07;3.80;;;;;;;7.93;98.41;102336.25;4983100;28;20042;-76
2022/09/21 00:47:26;;;;;;;6.45;3.60;;;;;;;7.86;98.70;102329.81;4969487;28;20133;-75
2022/09/21 00:49:54;;;;;;;5.85;3.10;;;;;;;7.75;98.83;102330.53;4983957;28;20048;-74
2022/09/21 00:52:23;;;;;;;8.85;4.15;;;;;;;7.70;98.82;102334.31;4967288;28;20034;-75
2022/09/21 00:54:53;;;;;;;7.10;3.33;;;;;;;7.64;98.87;102330.38;4981123;28;20027;-75
2022/09/21 00:57:23;;;;;;;13.50;3.83;;;;;;;7.64;99.32;102338.13;4987085;28;20026;-76
2022/09/21 00:59:53;;;;;;;9.63;3.97;;;;;;;7.65;99.41;102332.06;4983775;28;20038;-76
2022/09/21 01:02:19;;;;;;;10.85;3.90;;;;;;;7.69;100.00;102328.34;4982294;28;20038;-76
2022/09/21 01:04:45;;;;;;;8.55;3.28;;;;;;;7.74;100.00;102335.78;4977016;28;20037;-76
2022/09/21 01:07:17;;;;;;;6.95;3.42;;;;;;;7.77;100.00;102343.34;4981771;28;20030;-76
2022/09/21 01:09:45;;;;;;;6.45;3.88;;;;;;;7.73;100.00;102337.53;4967406;28;20034;-76
2022/09/21 01:12:29;;;;;;;6.38;3.97;;;;;;;7.71;100.00;102341.97;4982616;28;20049;-76
2022/09/21 01:15:09;;;;;;;5.03;3.20;;;;;;;7.73;100.00;102341.88;4983667;28;20154;-76
2022/09/21 01:17:39;;;;;;;7.03;3.85;;;;;;;7.76;100.00;102331.34;4971175;28;20535;-77
2022/09/21 01:20:24;;;;;;;7.50;3.33;;;;;;;7.78;100.00;102338.06;4985708;28;20093;-76
2022/09/21 01:23:25;;;;;;;10.00;4.25;;;;;;;7.79;100.00;102331.16;4986129;28;20475;-75
2022/09/21 01:26:01;;;;;;;9.45;3.90;;;;;;;7.77;100.00;102335.59;4985450;28;20126;-76
2022/09/21 01:28:53;;;;;;;11.98;3.92;;;;;;;7.77;100.00;102341.56;4970215;28;20034;-75
2022/09/21 01:31:26;;;;;;;8.10;3.90;;;;;;;7.76;100.00;102329.59;4982862;28;20101;-76
2022/09/21 01:33:57;;;;;;;8.43;3.92;;;;;;;7.78;100.00;102334.69;4983539;28;20034;-76
2022/09/21 01:36:27;;;;;;;6.15;3.78;;;;;;;7.80;100.00;102332.81;4988619;28;20046;-75
2022/09/21 01:39:15;;;;;;;6.00;3.70;;;;;;;7.84;100.00;102336.03;4967437;28;20045;-76
2022/09/21 01:41:43;;;;;;;7.53;3.75;;;;;;;7.84;100.00;102331.69;4985270;28;20496;-76
2022/09/21 01:44:14;;;;;;;10.35;3.75;;;;;;;7.83;100.00;102331.78;4985153;28;20041;-75
2022/09/21 01:46:40;;;;;;;9.25;3.90;;;;;;;7.80;100.00;102323.31;4967676;28;20046;-75
2022/09/21 01:49:11;;;;;;;7.13;3.97;;;;;;;7.79;100.00;102331.16;4978562;28;20080;-76
2022/09/21 01:51:42;;;;;;;9.30;4.53;;;;;;;7.77;100.00;102333.81;4981576;28;20614;-76
2022/09/21 01:54:20;;;;;;;9.30;4.07;;;;;;;7.79;100.00;102331.16;4980283;28;20045;-76
2022/09/21 01:57:04;;;;;;;10.77;4.88;;;;;;;7.82;100.00;102319.78;4969434;28;20034;-77
2022/09/21 01:59:57;;;;;;;11.40;4.15;;;;;;;7.83;100.00;102319.69;4981616;28;20046;-76
2022/09/21 02:02:25;;;;;;;8.50;3.88;;;;;;;7.81;100.00;102321.53;4986100;28;20509;-75
2022/09/21 02:04:51;;;;;;;5.82;3.80;;;;;;;7.77;100.00;102317.50;4982009;28;20042;-76
2022/09/21 02:07:17;;;;;;;7.47;3.80;;;;;;;7.73;100.00;102324.63;4965106;28;20480;-75
2022/09/21 02:09:46;;;;;;;8.27;3.22;;;;;;;7.71;100.00;102323.09;4972627;28;20833;-75
2022/09/21 02:12:12;;;;;;;6.85;3.70;;;;;;;7.70;100.00;102318.84;4984586;28;20037;-76
2022/09/21 02:14:38;;;;;;;5.85;3.42;;;;;;;7.72;100.00;102319.56;4986567;28;20684;-76
2022/09/21 02:17:23;;;;;;;7.25;3.72;;;;;;;7.73;100.00;102324.63;4984709;28;20058;-76
2022/09/21 02:20:03;;;;;;;7.63;4.05;;;;;;;7.74;100.00;102331.47;4970140;28;20046;-76
2022/09/21 02:22:39;;;;;;;10.38;4.07;;;;;;;7.71;100.00;102326.50;4984889;28;20069;-75
2022/09/21 02:25:24;;;;;;;10.93;4.00;;;;;;;7.65;100.00;102331.22;4984534;28;20134;-76
2022/09/21 02:27:54;;;;;;;5.13;3.40;;;;;;;7.56;100.00;102330.88;4980187;28;20045;-76
2022/09/21 02:30:24;;;;;;;7.88;3.85;;;;;;;7.49;100.00;102328.81;4984423;28;20065;-75
2022/09/21 02:33:28;;;;;;;9.38;3.83;;;;;;;7.46;100.00;102331.56;4982984;28;20037;-76
2022/09/21 02:36:01;;;;;;;8.38;4.50;;;;;;;7.46;100.00;102331.56;4980818;28;20042;-75
2022/09/21 02:38:45;;;;;;;6.15;4.03;;;;;;;7.46;100.00;102329.84;4966690;28;20428;-76
2022/09/21 02:41:39;;;;;;;8.85;4.03;;;;;;;7.48;100.00;102332.28;4985317;28;20042;-76
2022/09/21 02:44:19;;;;;;;9.93;4.53;;;;;;;7.49;100.00;102329.63;4985335;28;20504;-75
2022/09/21 02:46:53;;;;;;;9.38;3.70;;;;;;;7.49;100.00;102327.03;4986343;28;20045;-75
2022/09/21 02:49:25;;;;;;;10.98;4.38;;;;;;;7.47;100.00;102316.00;5001257;28;20041;-76
2022/09/21 02:51:55;;;;;;;9.02;4.50;;;;;;;7.45;100.00;102329.94;4983690;28;20065;-75
2022/09/21 02:54:25;;;;;;;10.70;3.63;;;;;;;7.41;100.00;102324.13;4984626;28;20060;-75
2022/09/21 02:56:53;;;;;;;7.88;4.43;;;;;;;7.33;99.87;102323.81;4971967;28;20490;-76
2022/09/21 02:59:20;;;;;;;6.40;3.17;;;;;;;7.26;100.00;102319.94;4982521;28;20365;-75
2022/09/21 03:01:46;;;;;;;10.15;3.90;;;;;;;7.20;100.00;102327.16;4980703;28;20144;-76
2022/09/21 03:04:11;;;;;;;7.15;3.80;;;;;;;7.18;99.98;102328.19;4983647;28;20113;-76
2022/09/21 03:06:37;;;;;;;8.88;3.72;;;;;;;7.13;99.96;102330.22;4981814;28;20037;-76
2022/09/21 03:09:02;;;;;;;9.52;3.92;;;;;;;7.11;100.00;102325.16;4966675;28;20034;-76
2022/09/21 03:11:28;;;;;;;6.40;3.80;;;;;;;7.06;100.00;102328.94;4981232;28;20096;-76
2022/09/21 03:13:53;;;;;;;9.63;4.43;;;;;;;7.03;99.96;102327.38;4980217;28;20045;-76
2022/09/21 03:16:19;;;;;;;5.82;3.55;;;;;;;7.01;100.00;102331.81;4981390;28;20057;-75
2022/09/21 03:18:44;;;;;;;7.10;3.65;;;;;;;7.00;100.00;102337.88;4981612;28;20048;-76
2022/09/21 03:21:11;;;;;;;8.68;4.10;;;;;;;6.99;100.00;102331.91;4991037;28;20049;-75
2022/09/21 03:23:36;;;;;;;14.80;4.70;;;;;;;6.98;100.00;102332.00;4983741;28;20346;-75
2022/09/21 03:26:02;;;;;;;8.07;4.95;;;;;;;6.98;99.92;102335.38;4977271;28;20096;-76
2022/09/21 03:28:28;;;;;;;10.88;4.40;;;;;;;6.93;99.72;102342.59;4967841;28;20097;-74
2022/09/21 03:30:53;;;;;;;7.18;4.28;;;;;;;6.87;99.46;102340.38;4970238;28;20038;-75
2022/09/21 03:33:19;;;;;;;7.93;3.83;;;;;;;6.86;99.76;102340.50;4981709;28;20128;-75
2022/09/21 03:35:47;;;;;;;9.98;4.47;;;;;;;6.83;99.66;102344.91;4984012;28;20100;-76
2022/09/21 03:38:12;;;;;;;6.10;4.18;;;;;;;6.80;99.78;102341.69;4982935;28;20105;-75
2022/09/21 03:40:38;;;;;;;13.48;4.63;;;;;;;6.82;99.47;102350.16;4979183;28;20045;-75
2022/09/21 03:43:03;;;;;;;9.18;4.28;;;;;;;6.82;99.75;102348.41;4966442;28;20034;-75
2022/09/21 03:45:29;;;;;;;6.78;3.95;;;;;;;6.79;99.47;102355.50;4979234;28;20928;-76
2022/09/21 03:47:59;;;;;;;8.30;3.58;;;;;;;6.75;99.65;102347.13;4983836;28;20057;-76
2022/09/21 03:50:27;;;;;;;8.13;4.10;;;;;;;6.77;99.68;102349.63;4965948;28;20552;-75
2022/09/21 03:52:52;;;;;;;12.80;3.80;;;;;;;6.76;99.46;102350.53;4985372;28;20117;-77
2022/09/21 03:55:20;;;;;;;8.57;4.03;;;;;;;6.75;99.31;102347.13;4986157;28;20183;-76
2022/09/21 03:57:45;;;;;;;9.95;4.25;;;;;;;6.76;99.22;102348.78;4985445;28;20388;-78
2022/09/21 04:00:12;;;;;;;7.38;4.38;;;;;;;6.77;99.46;102349.63;4983675;28;20042;-77
2022/09/21 04:02:39;;;;;;;7.93;4.00;;;;;;;6.78;99.37;102344.38;4969800;28;20169;-75
2022/09/21 04:05:06;;;;;;;10.18;3.90;;;;;;;6.75;99.08;102347.13;4979865;28;20026;-76
2022/09/21 04:07:33;;;;;;;9.90;4.40;;;;;;;6.74;99.20;102354.94;4985366;28;20042;-75
2022/09/21 04:09:59;;;;;;;6.90;3.63;;;;;;;6.63;98.90;102346.13;4969689;28;20033;-75
2022/09/21 04:12:25;;;;;;;7.43;3.80;;;;;;;6.62;99.19;102349.59;4987229;28;20054;-76
2022/09/21 04:14:50;;;;;;;6.93;3.95;;;;;;;6.64;99.55;102344.38;4987382;28;20042;-77
2022/09/21 04:17:16;;;;;;;8.63;4.65;;;;;;;6.61;99.40;102341.97;4986567;28;20045;-78
2022/09/21 04:19:43;;;;;;;8.23;4.03;;;;;;;6.61;99.53;102347.97;4986059;28;20034;-78
2022/09/21 04:22:10;;;;;;;8.38;4.05;;;;;;;6.57;99.27;102348.22;4985549;28;20323;-75
2022/09/21 04:24:37;;;;;;;11.68;4.40;;;;;;;6.54;99.52;102351.81;4968176;28;20770;-75
2022/09/21 04:27:03;;;;;;;7.30;4.00;;;;;;;6.54;99.83;102348.44;4985705;28;20453;-77
2022/09/21 04:29:28;;;;;;;7.32;4.18;;;;;;;6.55;99.72;102356.03;4975641;28;20030;-75
2022/09/21 04:31:54;;;;;;;10.15;4.70;;;;;;;6.56;100.00;102355.13;4970724;28;20042;-75
2022/09/21 04:34:20;;;;;;;8.23;3.95;;;;;;;6.57;100.00;102361.97;4989354;28;20097;-75
2022/09/21 04:36:46;;;;;;;7.43;4.65;;;;;;;6.56;100.00;102362.88;4985101;28;20038;-75
2022/09/21 04:39:11;;;;;;;8.13;4.50;;;;;;;6.53;100.00;102363.03;4967307;28;20476;-76
2022/09/21 04:41:37;;;;;;;8.60;4.00;;;;;;;6.51;100.00;102358.91;4987953;28;20045;-77
2022/09/21 04:44:02;;;;;;;7.47;4.47;;;;;;;6.47;100.00;102368.56;4971464;28;20034;-76
2022/09/21 04:46:28;;;;;;;8.95;4.80;;;;;;;6.48;100.00;102356.50;4973390;28;20033;-75
2022/09/21 04:48:53;;;;;;;7.07;3.90;;;;;;;6.46;100.00;102361.78;4986132;28;20038;-76
2022/09/21 04:51:18;;;;;;;11.57;4.65;;;;;;;6.46;100.00;102364.34;4986134;28;20045;-76
2022/09/21 04:53:44;;;;;;;7.70;4.47;;;;;;;6.45;100.00;102370.41;4996218;28;20050;-76
2022/09/21 04:56:13;;;;;;;8.93;4.45;;;;;;;6.42;100.00;102368.84;4990501;28;20026;-78
2022/09/21 04:58:38;;;;;;;6.57;3.85;;;;;;;6.39;100.00;102365.63;4985699;28;20085;-76
2022/09/21 05:01:05;;;;;;;6.97;3.97;;;;;;;6.40;100.00;102375.00;4988320;28;20049;-78
2022/09/21 05:03:30;;;;;;;8.60;3.90;;;;;;;6.40;100.00;102377.56;4970448;28;20498;-75
2022/09/21 05:05:57;;;;;;;6.18;3.83;;;;;;;6.42;100.00;102376.59;4974256;28;20042;-75
2022/09/21 05:11:14;;;;;;;6.20;4.10;;;;;;;6.50;100.00;102372.69;4987751;28;20042;-75
2022/09/21 05:13:40;;;;;;;18.27;4.43;;;;;;;6.52;100.00;102369.13;4987737;28;20060;-75
2022/09/21 05:16:06;;;;;;;7.95;4.32;;;;;;;6.53;100.00;102377.69;4972641;28;20038;-75
2022/09/21 05:18:31;;;;;;;7.63;4.00;;;;;;;6.53;100.00;102382.84;4987861;28;20030;-75
2022/09/21 05:20:58;;;;;;;9.05;4.32;;;;;;;6.53;100.00;102383.66;4972898;28;20035;-75
2022/09/21 05:23:25;;;;;;;12.63;4.85;;;;;;;6.52;100.00;102381.19;4974559;28;20479;-75
2022/09/21 05:25:50;;;;;;;7.93;4.40;;;;;;;6.52;100.00;102381.19;4976469;28;20038;-78
2022/09/21 05:28:17;;;;;;;12.80;4.85;;;;;;;6.53;100.00;102388.00;4998311;28;20795;-76
2022/09/21 05:30:53;;;;;;;7.05;4.30;;;;;;;6.53;100.00;102383.66;4970571;28;20116;-76
2022/09/21 05:33:20;;;;;;;11.57;4.70;;;;;;;6.57;100.00;102384.31;4988021;28;20113;-74
2022/09/21 05:35:58;;;;;;;8.73;4.72;;;;;;;6.59;100.00;102378.16;4975703;28;20065;-76
2022/09/21 05:38:23;;;;;;;9.90;4.28;;;;;;;6.65;100.00;102389.00;4977626;28;20097;-76
2022/09/21 05:40:49;;;;;;;10.05;4.88;;;;;;;6.71;100.00;102386.91;4989335;28;20038;-75
2022/09/21 05:43:16;;;;;;;6.60;4.38;;;;;;;6.78;100.00;102401.09;4985126;28;20379;-74
2022/09/21 05:45:49;;;;;;;9.75;4.25;;;;;;;6.85;100.00;102393.81;4969934;28;20034;-75
2022/09/21 05:48:18;;;;;;;10.23;5.05;;;;;;;6.88;100.00;102397.97;4987364;28;20566;-76
2022/09/21 05:51:05;;;;;;;8.43;4.80;;;;;;;6.91;100.00;102400.34;4966671;28;20038;-75
2022/09/21 05:54:05;;;;;;;10.40;4.85;;;;;;;6.95;100.00;102407.81;4986351;28;20049;-75
2022/09/21 05:56:53;;;;;;;13.13;4.68;;;;;;;6.98;100.00;102410.19;4982066;28;20045;-75
2022/09/21 05:59:31;;;;;;;10.68;5.88;;;;;;;7.05;100.00;102410.66;4987914;28;20648;-75
2022/09/21 06:01:59;;;;;;;16.67;6.75;;;;;;;7.15;100.00;102409.16;4965430;28;20057;-76
2022/09/21 06:04:25;;;;;;;10.95;5.85;;;;;;;7.16;100.00;102404.84;4966959;28;20667;-76
2022/09/21 06:06:51;;;;;;;8.90;5.30;;;;;;;7.16;100.00;102413.41;4985020;28;20069;-76
2022/09/21 06:09:16;;;;;;;10.68;5.90;;;;;;;7.22;100.00;102417.38;4969690;28;20053;-75
2022/09/21 06:11:42;;;;;;;14.73;6.47;;;;;;;7.26;100.00;102418.00;4970875;28;20045;-76
2022/09/21 06:14:07;;;;;;;13.63;6.13;;;;;;;7.30;100.00;102420.28;4984539;28;20037;-76
2022/09/21 06:16:41;;;;;;;10.65;6.07;;;;;;;7.37;100.00;102418.16;4971118;28;20506;-75
2022/09/21 06:19:10;;;;;;;16.55;5.95;;;;;;;7.45;100.00;102425.44;4984096;28;20027;-77
2022/09/21 06:21:35;;;;;;;14.40;6.10;;;;;;;7.54;100.00;102424.84;4985620;28;20121;-75
2022/09/21 06:24:01;;;;;;;10.00;6.25;;;;;;;7.58;100.00;102431.47;4986181;28;20550;-75
2022/09/21 06:26:27;;;;;;;17.73;7.60;;;;;;;7.61;100.00;102428.72;4983819;28;20509;-75
2022/09/21 06:28:53;;;;;;;11.75;6.47;;;;;;;7.67;100.00;102430.91;4979416;28;20050;-75
2022/09/21 06:31:18;;;;;;;13.50;7.13;;;;;;;7.73;100.00;102427.09;4965690;28;20432;-75
2022/09/21 06:33:44;;;;;;;13.10;6.25;;;;;;;7.78;100.00;102427.66;4981641;28;20039;-75
2022/09/21 06:36:09;;;;;;;13.93;6.18;;;;;;;7.82;100.00;102428.25;4981648;28;20038;-75
2022/09/21 06:38:35;;;;;;;13.95;6.40;;;;;;;7.88;100.00;102427.88;4978531;28;20042;-74
2022/09/21 06:41:02;;;;;;;14.68;6.20;;;;;;;7.95;100.00;102436.91;4977483;28;20051;-75
2022/09/21 06:43:27;;;;;;;15.98;6.45;;;;;;;8.03;100.00;102434.63;4981569;28;20383;-75
2022/09/21 06:45:55;;;;;;;16.35;6.63;;;;;;;8.13;100.00;102433.09;4983626;28;20035;-75
2022/09/21 06:48:21;;;;;;;11.07;5.68;;;;;;;8.21;100.00;102442.09;4964440;28;20034;-75
2022/09/21 06:50:47;;;;;;;15.77;8.57;;;;;;;8.21;100.00;102442.09;4984356;28;20117;-75
2022/09/21 06:53:13;;;;;;;15.57;6.57;;;;;;;8.28;100.00;102441.59;4974564;28;20096;-75
2022/09/21 06:55:39;;;;;;;13.73;7.15;;;;;;;8.60;100.00;102435.25;4982938;28;20450;-75
2022/09/21 06:58:04;;;;;;;11.93;6.47;;;;;;;9.04;100.00;102437.41;4969507;28;20066;-75
2022/09/21 07:00:31;;;;;;;13.77;7.05;;;;;;;9.32;100.00;102436.31;4981662;28;20121;-75
2022/09/21 07:02:56;;;;;;;12.35;6.85;;;;;;;9.31;100.00;102432.06;4985762;28;20053;-77
2022/09/21 07:05:22;;;;;;;11.85;7.20;;;;;;;9.24;100.00;102424.84;4985312;28;20030;-74
2022/09/21 07:07:47;;;;;;;13.88;6.97;;;;;;;9.25;100.00;102439.41;4984969;28;20030;-74
2022/09/21 07:10:13;;;;;;;11.25;7.05;;;;;;;9.20;100.00;102433.75;4976270;28;20028;-74
2022/09/21 07:12:38;;;;;;;13.07;6.80;;;;;;;9.18;100.00;102435.63;4985879;28;20033;-75
2022/09/21 07:15:05;;;;;;;11.55;6.70;;;;;;;9.09;100.00;102439.69;4983245;28;20447;-75
2022/09/21 07:17:36;;;;;;;18.08;9.02;;;;;;;9.11;100.00;102438.63;4966582;28;20057;-75
2022/09/21 07:20:03;;;;;;;15.27;8.15;;;;;;;9.09;100.00;102444.84;4985914;28;20033;-75
2022/09/21 07:22:33;;;;;;;15.23;7.03;;;;;;;9.26;100.00;102438.50;4982770;28;20034;-75
2022/09/21 07:24:58;;;;;;;13.65;7.88;;;;;;;9.29;100.00;102441.72;4984399;28;20038;-75
2022/09/21 07:27:26;;;;;;;15.70;7.47;;;;;;;9.39;100.00;102436.69;4982920;28;20035;-75
2022/09/21 07:29:52;;;;;;;18.70;8.50;;;;;;;9.54;100.00;102437.38;4984205;28;20113;-76
2022/09/21 07:32:17;;;;;;;18.83;8.63;;;;;;;9.62;100.00;102437.66;4982014;28;20030;-76
2022/09/21 07:34:44;;;;;;;20.08;9.75;;;;;;;9.97;100.00;102430.88;4968584;28;20018;-76
2022/09/21 07:37:10;;;;;;;18.90;9.52;;;;;;;10.05;100.00;102431.13;4978939;28;20042;-76
2022/09/21 07:39:37;;;;;;;25.25;11.00;;;;;;;10.10;100.00;102429.03;4967950;28;20030;-75
2022/09/21 07:42:03;;;;;;;21.08;9.38;;;;;;;10.26;100.00;102432.13;4982954;28;20030;-75
2022/09/21 07:44:29;;;;;;;22.35;10.18;;;;;;;10.60;99.79;102427.03;4976511;28;20034;-75
2022/09/21 07:46:55;;;;;;;18.42;10.20;;;;;;;10.72;98.49;102427.88;4967092;28;20045;-75
2022/09/21 07:49:20;;;;;;;21.40;11.23;;;;;;;11.71;95.27;102422.75;4984555;28;20490;-75
2022/09/21 07:51:45;;;;;;;21.95;10.27;;;;;;;12.12;91.47;102419.41;4977359;28;20034;-75
2022/09/21 07:54:11;;;;;;;15.80;9.35;;;;;;;12.29;90.41;102417.19;4984301;28;20038;-76
2022/09/21 07:56:37;;;;;;;25.23;11.10;;;;;;;12.30;89.20;102426.63;4984116;28;20456;-75
2022/09/21 07:59:07;;;;;;;23.40;11.18;;;;;;;12.28;88.81;102424.16;4967831;28;20109;-75
2022/09/21 08:01:40;;;;;;;25.38;11.52;;;;;;;11.95;90.09;102430.38;4982871;28;20211;-75
2022/09/21 08:04:07;;;;;;;19.02;10.77;;;;;;;12.38;89.20;102432.03;4982526;28;20041;-74
2022/09/21 08:06:35;;;;;;;20.67;10.80;;;;;;;12.52;87.16;102431.69;4979689;28;20117;-75
2022/09/21 08:09:01;;;;;;;22.50;11.38;;;;;;;12.40;85.92;102427.53;4981870;28;20109;-74
2022/09/21 08:11:29;;;;;;;26.90;12.80;;;;;;;12.41;85.79;102430.00;4983227;28;20035;-75
2022/09/21 08:13:57;;;;;;;29.95;12.75;;;;;;;12.36;86.75;102428.75;4979839;28;20117;-75
2022/09/21 08:16:22;;;;;;;28.05;11.45;;;;;;;12.46;86.62;102421.81;4981726;28;20034;-75
2022/09/21 08:18:49;;;;;;;24.92;10.88;;;;;;;12.99;85.67;102421.59;4997593;28;20081;-76
2022/09/21 08:21:14;;;;;;;25.65;12.35;;;;;;;13.24;82.45;102417.72;4983029;28;20080;-75
2022/09/21 08:23:41;;;;;;;25.38;11.27;;;;;;;13.55;81.18;102417.63;4981815;28;20049;-75
2022/09/21 08:26:09;;;;;;;27.73;12.15;;;;;;;13.59;80.58;102426.81;4996603;28;20045;-75
2022/09/21 08:28:35;;;;;;;21.58;10.52;;;;;;;13.59;81.20;102426.81;4969308;28;20046;-76
2022/09/21 08:31:02;;;;;;;26.08;10.80;;;;;;;14.10;80.50;102426.69;4982263;28;20158;-76
2022/09/21 08:33:28;;;;;;;19.55;10.93;;;;;;;14.48;78.36;102432.78;4967941;28;20027;-75
2022/09/21 08:35:55;;;;;;;21.05;10.63;;;;;;;15.17;75.30;102427.13;4964396;28;20838;-76
2022/09/21 08:38:21;;;;;;;29.52;12.45;;;;;;;15.12;72.72;102431.16;4981097;28;20084;-76
2022/09/21 08:40:47;;;;;;;19.00;10.52;;;;;;;15.42;72.09;102431.78;4983588;28;20037;-75
2022/09/21 08:43:16;;;;;;;22.35;10.85;;;;;;;15.97;70.52;102429.03;4981372;28;20483;-75
2022/09/21 08:45:44;;;;;;;24.08;10.70;;;;;;;16.34;69.02;102417.50;4964922;28;20026;-76
2022/09/21 08:48:39;;;;;;;25.25;10.75;;;;;;;16.70;67.36;102418.16;4982202;28;20061;-76
2022/09/21 08:51:10;;;;;;;21.52;10.50;;;;;;;16.61;66.52;102418.28;4977909;28;20042;-75
2022/09/21 08:53:40;;;;;;;27.52;11.82;;;;;;;16.84;66.49;102421.19;4977328;28;20034;-75
2022/09/21 08:56:10;;;;;;;16.85;9.80;;;;;;;17.08;63.92;102416.06;4981039;28;20112;-75
2022/09/21 08:58:39;;;;;;;22.42;9.95;;;;;;;16.87;64.11;102426.13;4972836;28;20030;-76
2022/09/21 09:01:45;;;;;;;22.58;10.30;;;;;;;16.74;66.63;102416.06;4984337;28;20140;-75
2022/09/21 09:04:35;;;;;;;18.77;9.50;;;;;;;17.09;66.47;102422.13;4979566;28;20031;-75
2022/09/21 09:07:20;;;;;;;22.70;9.20;;;;;;;16.87;64.99;102420.88;4986397;28;20034;-75
2022/09/21 09:10:03;;;;;;;16.00;8.32;;;;;;;17.03;64.29;102422.75;4986014;28;20121;-75
2022/09/21 09:12:54;;;;;;;12.70;7.50;;;;;;;17.09;64.71;102422.94;4983047;28;20035;-75
2022/09/21 09:15:45;;;;;;;16.83;7.85;;;;;;;16.81;64.36;102424.94;4980675;28;20045;-76
2022/09/21 09:18:22;;;;;;;17.90;7.22;;;;;;;16.89;63.39;102421.53;4965962;28;20038;-76
2022/09/21 09:20:56;;;;;;;17.77;6.82;;;;;;;16.93;63.78;102422.88;5002258;28;20061;-74
2022/09/21 09:23:33;;;;;;;14.57;7.05;;;;;;;17.02;63.34;102427.16;4987889;28;20026;-75
2022/09/21 09:26:17;;;;;;;20.40;8.07;;;;;;;16.91;64.92;102424.84;4985699;28;20533;-75
2022/09/21 09:29:02;;;;;;;;;;;;;;;17.01;63.73;102424.69;4984515;28;21784;-77
2022/09/21 09:31:32;;;;;;;12.70;6.30;;;;;;;17.07;62.66;102424.06;4985012;28;19972;-76
2022/09/21 09:34:21;;;;;;;19.20;7.50;;;;;;;16.91;63.58;102425.66;4981869;28;20392;-76
2022/09/21 09:36:53;;;;;;;10.60;5.85;;;;;;;16.67;62.72;102425.50;4985046;28;20049;-77
2022/09/21 09:39:18;;;;;;;12.45;5.78;;;;;;;16.59;64.50;102426.28;4966022;28;20125;-75
2022/09/21 09:42:05;;;;;;;10.07;6.00;;;;;;;16.78;61.79;102425.22;4981722;28;20030;-76
2022/09/21 09:45:00;;;;;;;11.65;5.97;;;;;;;16.90;62.45;102421.41;4981373;28;20038;-76
2022/09/21 09:47:52;;;;;;;14.48;6.15;;;;;;;16.74;60.62;102424.75;4981995;28;20070;-76
2022/09/21 09:50:27;;;;;;;17.20;6.20;;;;;;;16.63;63.04;102421.56;4968336;28;20462;-76
2022/09/21 09:52:58;;;;;;;11.77;4.50;;;;;;;16.62;63.87;102418.13;4984579;28;20045;-76
2022/09/21 09:55:29;;;;;;;12.73;5.22;;;;;;;16.67;61.92;102418.50;4983461;28;20030;-77
2022/09/21 09:57:55;;;;;;;9.15;4.95;;;;;;;16.59;61.77;102420.25;4985937;28;20040;-76
2022/09/21 10:00:21;;;;;;;9.52;4.70;;;;;;;16.72;59.79;102420.63;4968488;28;20460;-76
2022/09/21 10:02:52;;;;;;;11.82;4.15;;;;;;;16.57;60.02;102417.78;4985442;28;20034;-77
2022/09/21 10:05:22;;;;;;;9.20;4.22;;;;;;;16.49;61.19;102420.38;4984409;28;20029;-77
2022/09/21 10:07:48;;;;;;;13.70;4.78;;;;;;;16.55;61.99;102419.75;4981770;28;20073;-75
2022/09/21 10:10:38;;;;;;;13.68;3.80;;;;;;;16.71;62.82;102425.06;4981311;28;20057;-75
2022/09/21 10:13:21;;;;;;;7.30;3.42;;;;;;;16.70;62.74;102419.97;4985230;28;20113;-76
2022/09/21 10:16:00;;;;;;;8.63;3.75;;;;;;;16.83;62.25;102409.91;4968249;28;20061;-76
2022/09/21 10:19:00;;;;;;;10.15;4.45;;;;;;;16.82;62.01;102413.53;4984114;28;20037;-76
2022/09/21 10:21:35;;;;;;;12.38;4.40;;;;;;;16.92;63.09;102406.34;4985118;28;20037;-76
2022/09/21 10:24:29;;;;;;;8.93;4.03;;;;;;;17.04;62.41;102409.47;4984892;28;20395;-75
2022/09/21 10:27:03;;;;;;;;;;;;;;;17.07;60.14;102403.13;5003036;28;20480;-77
2022/09/21 10:29:41;;;;;;;9.43;3.72;;;;;;;16.96;61.28;102408.66;4983563;28;20242;-76
2022/09/21 10:32:12;;;;;;;8.60;3.88;;;;;;;16.90;60.32;102418.78;4985629;28;20038;-74
2022/09/21 10:34:40;;;;;;;8.90;3.70;;;;;;;16.93;60.80;102410.63;4981548;28;20074;-76
2022/09/21 10:37:25;;;;;;;6.85;2.88;;;;;;;16.89;60.07;102401.41;4985282;28;20088;-77
2022/09/21 10:39:50;;;;;;;12.93;3.33;;;;;;;17.06;60.98;102401.47;4981092;28;20038;-77
2022/09/21 10:42:18;;;;;;;11.07;4.93;;;;;;;17.08;59.63;102402.97;4983793;28;20038;-79
2022/09/21 10:44:49;;;;;;;11.00;3.10;;;;;;;16.84;58.60;102408.09;4968069;28;20042;-77
2022/09/21 10:47:37;;;;;;;7.47;1.98;;;;;;;16.79;57.79;102405.13;4985549;28;20772;-77
2022/09/21 10:50:39;;;;;;;5.80;2.03;;;;;;;17.23;58.86;102399.69;4967837;28;20096;-74
2022/09/21 10:53:08;;;;;;;6.10;1.95;;;;;;;16.99;58.09;102397.84;4983565;28;20046;-77
2022/09/21 10:55:56;;;;;;;5.72;1.77;;;;;;;16.94;57.12;102400.94;4983062;28;20487;-74
2022/09/21 10:58:22;;;;;;;6.57;1.60;;;;;;;16.78;57.96;102393.81;4984684;28;20121;-77
2022/09/21 11:00:50;;;;;;;6.68;1.60;;;;;;;16.79;57.54;102405.94;4969415;28;20034;-75
2022/09/21 11:03:35;;;;;;;5.30;1.35;;;;;;;16.92;55.31;102400.28;4980874;28;20483;-77
2022/09/21 11:06:22;;;;;;;9.00;1.67;;;;;;;17.07;54.72;102398.69;4986041;28;20034;-77
2022/09/21 11:08:57;;;;;;;5.93;1.60;;;;;;;17.17;56.84;102400.34;4969864;28;20053;-77
2022/09/21 11:12:02;;;;;;;5.55;2.55;;;;;;;17.50;56.89;102394.16;4983445;28;20492;-76
2022/09/21 11:14:46;;;;;;;6.45;2.13;;;;;;;17.18;57.62;102394.94;4976035;28;20050;-77
2022/09/21 11:17:42;;;;;;;10.65;2.50;;;;;;;17.25;54.58;102395.09;4970442;28;20092;-77
2022/09/21 11:20:29;;;;;;;5.28;2.15;;;;;;;17.41;55.69;102400.38;4984393;28;20572;-76
2022/09/21 11:23:22;;;;;;;8.32;2.20;;;;;;;17.30;55.39;102395.44;4980554;28;20140;-76
2022/09/21 11:26:15;;;;;;;12.07;2.55;;;;;;;17.53;52.70;102382.50;4972336;28;20134;-77
2022/09/21 11:29:07;;;;;;;6.82;1.85;;;;;;;17.08;55.15;102396.88;4983274;28;20121;-77
2022/09/21 11:31:36;;;;;;;4.38;2.38;;;;;;;17.19;54.20;102387.91;4981273;28;20149;-77
2022/09/21 11:34:07;;;;;;;6.95;1.30;;;;;;;17.36;53.97;102386.94;4980746;28;20034;-78
2022/09/21 11:37:08;;;;;;;5.80;1.60;;;;;;;17.54;51.53;102384.16;4982265;28;20041;-76
2022/09/21 11:39:50;;;;;;;5.97;1.10;;;;;;;17.57;51.29;102378.56;4984568;28;20042;-76
2022/09/21 11:42:25;;;;;;;3.53;1.02;;;;;;;17.82;51.46;102370.69;4968936;28;20702;-77
2022/09/21 11:44:58;;;;;;;8.70;1.25;;;;;;;17.98;48.30;102365.47;4983736;28;20093;-77